Time;durP1;ratioP1;P1;durP2;ratioP2;P2;SDS_P1;SDS_P2;PMS_P1;PMS_P2;Temp;Humidity;BMP_temperature;BMP_pressure;BME280_temperature;BME280_humidity;BME280_pressure;Samples;Min_cycle;Max_cycle;Signal;HPM_P1;HPM_P2
2021/09/29 00:00:58;;;;;;;;;;;9.70;99.90;;;;;;5038616;28;20426;-62
2021/09/29 00:03:24;;;;;;;5.22;2.50;;;9.70;99.90;;;;;;5022526;28;19917;-62
2021/09/29 00:05:49;;;;;;;;;;;9.70;99.90;;;;;;5020954;28;20041;-64
2021/09/29 00:08:15;;;;;;;8.25;2.78;;;9.80;99.90;;;;;;5031412;28;19921;-63
2021/09/29 00:10:41;;;;;;;;;;;9.70;99.90;;;;;;5037509;28;20048;-63
2021/09/29 00:13:07;;;;;;;4.88;2.70;;;9.70;99.90;;;;;;5028330;28;20527;-63
2021/09/29 00:15:32;;;;;;;;;;;9.80;99.90;;;;;;5019403;28;20034;-65
2021/09/29 00:17:58;;;;;;;7.82;2.63;;;9.70;99.90;;;;;;4994554;28;20011;-64
2021/09/29 00:20:23;;;;;;;;;;;9.70;99.90;;;;;;4990404;28;20043;-65
2021/09/29 00:22:49;;;;;;;6.60;2.90;;;9.70;99.90;;;;;;4989364;28;19929;-63
2021/09/29 00:25:15;;;;;;;;;;;9.70;99.90;;;;;;4990552;28;20042;-65
2021/09/29 00:27:42;;;;;;;6.38;2.70;;;9.70;99.90;;;;;;4995932;28;20008;-64
2021/09/29 00:30:09;;;;;;;5.45;2.60;;;9.70;99.90;;;;;;5008943;28;20409;-65
2021/09/29 00:32:39;;;;;;;7.85;2.65;;;9.60;99.90;;;;;;5009174;28;20049;-63
2021/09/29 00:35:06;;;;;;;5.10;2.40;;;9.70;99.90;;;;;;5008988;28;20053;-65
2021/09/29 00:37:31;;;;;;;21.80;12.48;;;9.60;99.90;;;;;;5006096;28;20038;-65
2021/09/29 00:39:57;;;;;;;;;;;9.70;99.90;;;;;;5000881;28;20092;-63
2021/09/29 00:42:23;;;;;;;23.13;13.07;;;9.70;99.90;;;;;;5003139;28;19929;-64
2021/09/29 00:44:50;;;;;;;14.30;5.68;;;9.70;99.90;;;;;;4989410;28;20046;-62
2021/09/29 00:47:17;;;;;;;9.52;3.75;;;9.70;99.90;;;;;;4988085;28;20074;-63
2021/09/29 00:49:42;;;;;;;8.88;3.10;;;9.60;99.90;;;;;;4989476;28;20034;-65
2021/09/29 00:52:08;;;;;;;;;;;9.60;99.90;;;;;;4989005;28;20038;-64
2021/09/29 00:54:34;;;;;;;9.40;2.85;;;9.60;99.90;;;;;;4988049;28;19918;-64
2021/09/29 00:56:59;;;;;;;;;;;9.60;99.90;;;;;;4989684;28;20458;-64
2021/09/29 00:59:25;;;;;;;9.35;3.10;;;9.60;99.90;;;;;;5004701;28;19921;-64
2021/09/29 01:01:51;;;;;;;;;;;9.60;99.90;;;;;;5009392;28;20437;-65
2021/09/29 01:04:18;;;;;;;4.53;2.60;;;9.60;99.90;;;;;;5009884;28;19917;-63
2021/09/29 01:06:50;;;;;;;12.60;2.67;;;9.60;99.90;;;;;;5007587;28;20053;-65
2021/09/29 01:09:44;;;;;;;12.68;3.70;;;9.60;99.90;;;;;;4998861;28;20073;-65
2021/09/29 01:12:28;;;;;;;16.95;4.35;;;9.60;99.90;;;;;;5008577;28;20037;-64
2021/09/29 01:15:13;;;;;;;7.53;3.15;;;9.50;99.90;;;;;;5009328;28;20725;-64
2021/09/29 01:17:44;;;;;;;7.55;2.90;;;9.50;99.90;;;;;;5007590;28;20126;-65
2021/09/29 01:20:17;;;;;;;7.13;2.85;;;9.50;99.90;;;;;;5008369;28;20041;-64
2021/09/29 01:23:24;;;;;;;7.00;2.90;;;9.50;99.90;;;;;;5008408;28;20124;-65
2021/09/29 01:25:57;;;;;;;5.93;2.77;;;9.60;99.90;;;;;;5008063;28;20046;-64
2021/09/29 01:28:51;;;;;;;5.88;3.00;;;9.60;99.90;;;;;;5006557;28;20365;-64
2021/09/29 01:31:19;;;;;;;6.85;3.13;;;9.60;99.90;;;;;;5008330;28;20038;-64
2021/09/29 01:33:46;;;;;;;7.70;3.28;;;9.50;99.90;;;;;;5007926;28;20732;-65
2021/09/29 01:36:12;;;;;;;9.35;3.35;;;9.50;99.90;;;;;;5007656;28;20184;-65
2021/09/29 01:38:39;;;;;;;;;;;9.50;99.90;;;;;;4999869;28;20573;-66
2021/09/29 01:41:06;;;;;;;9.38;2.80;;;9.50;99.90;;;;;;5005234;28;19924;-64
2021/09/29 01:43:33;;;;;;;10.05;3.58;;;9.60;99.90;;;;;;5007907;28;20052;-64
2021/09/29 01:45:59;;;;;;;8.38;3.35;;;9.60;99.90;;;;;;5013780;28;20057;-64
2021/09/29 01:48:24;;;;;;;;;;;9.70;99.90;;;;;;5028593;28;20045;-63
2021/09/29 01:50:57;;;;;;;3.55;2.75;;;9.70;99.90;;;;;;5027518;28;20278;-64
2021/09/29 01:53:26;;;;;;;8.23;3.35;;;9.60;99.90;;;;;;5026381;28;20049;-65
2021/09/29 01:55:52;;;;;;;8.90;2.70;;;9.70;99.90;;;;;;5027548;28;20482;-65
2021/09/29 01:58:17;;;;;;;;;;;9.70;99.90;;;;;;5027939;28;20044;-65
2021/09/29 02:00:43;;;;;;;5.82;2.53;;;9.70;99.90;;;;;;5027276;28;20602;-64
2021/09/29 02:03:09;;;;;;;;;;;9.70;99.90;;;;;;5026919;28;20045;-63
2021/09/29 02:05:36;;;;;;;5.10;2.92;;;9.60;99.90;;;;;;5010278;28;19933;-63
2021/09/29 02:08:06;;;;;;;4.90;2.80;;;9.50;99.90;;;;;;5014984;28;20116;-65
2021/09/29 02:10:32;;;;;;;6.25;3.05;;;9.50;99.90;;;;;;5020246;28;20134;-64
2021/09/29 02:12:57;;;;;;;;;;;9.50;99.90;;;;;;5027756;28;20069;-64
2021/09/29 02:15:23;;;;;;;6.03;3.30;;;9.50;99.90;;;;;;5024938;28;19928;-66
2021/09/29 02:17:49;;;;;;;;;;;9.50;99.90;;;;;;5007682;28;20042;-62
2021/09/29 02:20:15;;;;;;;8.50;3.13;;;9.40;99.90;;;;;;5008027;28;19917;-60
2021/09/29 02:22:40;;;;;;;;;;;9.40;99.90;;;;;;5006830;28;20066;-64
2021/09/29 02:25:07;;;;;;;8.50;3.22;;;9.40;99.90;;;;;;5008193;28;19961;-62
2021/09/29 02:27:33;;;;;;;12.82;3.55;;;9.40;99.90;;;;;;4999587;28;20419;-63
2021/09/29 02:29:59;;;;;;;;;;;9.40;99.90;;;;;;4988631;28;20069;-62
2021/09/29 02:32:24;;;;;;;7.07;3.22;;;9.40;99.90;;;;;;4986430;28;20429;-62
2021/09/29 02:34:50;;;;;;;;;;;9.40;99.90;;;;;;4987555;28;20038;-62
2021/09/29 02:37:15;;;;;;;6.90;3.00;;;9.40;99.90;;;;;;4985968;28;19918;-63
2021/09/29 02:39:41;;;;;;;;;;;9.50;99.90;;;;;;4995850;28;20081;-62
2021/09/29 02:42:07;;;;;;;6.03;2.85;;;9.50;99.90;;;;;;4986396;28;19998;-63
2021/09/29 02:44:33;;;;;;;7.72;3.78;;;9.40;99.90;;;;;;4987911;28;20489;-63
2021/09/29 02:46:59;;;;;;;;;;;9.40;99.90;;;;;;4988353;28;20050;-62
2021/09/29 02:49:25;;;;;;;4.47;3.33;;;9.40;99.90;;;;;;4986791;28;19952;-64
2021/09/29 02:51:50;;;;;;;;;;;9.30;99.90;;;;;;4986953;28;20534;-63
2021/09/29 02:54:15;;;;;;;9.45;4.00;;;9.30;99.90;;;;;;4982844;28;20329;-62
2021/09/29 02:56:41;;;;;;;;;;;9.30;99.90;;;;;;4987532;28;20065;-63
2021/09/29 02:59:09;;;;;;;9.55;4.07;;;9.30;99.90;;;;;;4999198;28;19936;-63
2021/09/29 03:01:36;;;;;;;4.22;3.05;;;9.30;99.90;;;;;;5006686;28;20129;-62
2021/09/29 03:04:02;;;;;;;8.43;3.08;;;9.30;99.90;;;;;;5006896;28;20049;-63
2021/09/29 03:06:27;;;;;;;;;;;9.30;99.90;;;;;;5006065;28;20045;-61
2021/09/29 03:08:53;;;;;;;4.65;3.20;;;9.30;99.90;;;;;;4996939;28;19921;-63
2021/09/29 03:11:18;;;;;;;;;;;9.20;99.90;;;;;;5006045;28;20528;-63
2021/09/29 03:13:45;;;;;;;6.80;3.45;;;9.30;99.90;;;;;;5006994;28;19921;-62
2021/09/29 03:16:10;;;;;;;5.60;2.95;;;9.30;99.90;;;;;;5005809;28;20042;-63
2021/09/29 03:18:36;;;;;;;;;;;9.30;99.90;;;;;;5007150;28;20038;-63
2021/09/29 03:21:01;;;;;;;6.90;2.97;;;9.30;99.90;;;;;;5005615;28;19917;-63
2021/09/29 03:23:27;;;;;;;;;;;9.30;99.90;;;;;;5006824;28;20153;-63
2021/09/29 03:25:52;;;;;;;6.43;3.13;;;9.20;99.90;;;;;;5005579;28;20485;-62
2021/09/29 03:28:18;;;;;;;;;;;9.20;99.90;;;;;;5006797;28;20568;-64
2021/09/29 03:30:43;;;;;;;5.38;2.88;;;9.20;99.90;;;;;;5006897;28;19920;-64
2021/09/29 03:33:09;;;;;;;;;;;9.20;99.90;;;;;;5006553;28;20045;-62
2021/09/29 03:35:35;;;;;;;6.75;3.45;;;9.10;99.90;;;;;;5006004;28;19913;-62
2021/09/29 03:38:01;;;;;;;;;;;9.20;99.90;;;;;;5003670;28;20386;-62
2021/09/29 03:40:26;;;;;;;15.18;3.17;;;9.20;99.90;;;;;;4999310;28;19917;-63
2021/09/29 03:42:52;;;;;;;;;;;9.20;99.90;;;;;;5007477;28;20088;-63
2021/09/29 03:45:17;;;;;;;9.30;3.35;;;9.30;99.90;;;;;;5006313;28;19917;-63
2021/09/29 03:47:44;;;;;;;;;;;9.20;99.90;;;;;;5007020;28;20030;-62
2021/09/29 03:50:11;;;;;;;6.72;3.10;;;9.20;99.90;;;;;;5005739;28;19917;-63
2021/09/29 03:52:37;;;;;;;5.75;3.42;;;9.20;99.90;;;;;;5007320;28;20038;-65
2021/09/29 03:55:03;;;;;;;;;;;9.20;99.90;;;;;;5010471;28;20124;-60
2021/09/29 03:57:28;;;;;;;6.45;3.45;;;9.30;99.90;;;;;;5009214;28;20012;-65
2021/09/29 03:59:54;;;;;;;;;;;9.30;99.90;;;;;;5010744;28;20042;-61
2021/09/29 04:02:19;;;;;;;6.78;3.00;;;9.20;99.90;;;;;;5009239;28;19928;-65
2021/09/29 04:04:45;;;;;;;;;;;9.20;99.90;;;;;;4994482;28;20659;-65
2021/09/29 04:07:10;;;;;;;6.55;3.72;;;9.30;99.90;;;;;;4990315;28;19984;-65
2021/09/29 04:09:36;;;;;;;;;;;9.20;99.90;;;;;;4999739;28;20696;-64
2021/09/29 04:12:01;;;;;;;6.22;3.25;;;9.30;99.90;;;;;;5009363;28;20582;-64
2021/09/29 04:14:27;;;;;;;;;;;9.30;99.90;;;;;;5010445;28;20037;-65
2021/09/29 04:16:52;;;;;;;5.45;3.53;;;9.30;99.90;;;;;;5008557;28;19921;-63
2021/09/29 04:19:18;;;;;;;;;;;9.30;99.90;;;;;;5010391;28;20034;-64
2021/09/29 04:21:44;;;;;;;7.15;3.70;;;9.20;99.90;;;;;;5009126;28;19994;-64
2021/09/29 04:24:10;;;;;;;;;;;9.30;99.90;;;;;;5008800;28;20041;-65
2021/09/29 04:26:38;;;;;;;12.90;4.43;;;9.40;99.90;;;;;;5007647;28;19928;-63
2021/09/29 04:29:04;;;;;;;30.40;16.40;;;9.30;99.90;;;;;;4993538;28;20049;-65
2021/09/29 04:31:30;;;;;;;;;;;9.30;99.90;;;;;;4989992;28;20046;-65
2021/09/29 04:33:56;;;;;;;17.30;8.45;;;9.20;99.90;;;;;;4989919;28;19940;-62
2021/09/29 04:36:21;;;;;;;;;;;9.30;99.90;;;;;;4985898;28;20050;-62
2021/09/29 04:38:47;;;;;;;32.85;17.00;;;9.40;99.90;;;;;;4997897;28;19917;-62
2021/09/29 04:41:12;;;;;;;;;;;9.50;99.90;;;;;;5007171;28;20042;-63
2021/09/29 04:43:38;;;;;;;10.13;6.13;;;9.50;99.90;;;;;;5008140;28;19917;-63
2021/09/29 04:46:04;;;;;;;;;;;9.50;99.90;;;;;;5008797;28;20046;-64
2021/09/29 04:48:29;;;;;;;210.25;112.40;;;9.50;99.90;;;;;;4997922;28;19917;-63
2021/09/29 04:50:55;;;;;;;;;;;9.50;99.90;;;;;;4988753;28;20042;-63
2021/09/29 04:53:20;;;;;;;21.50;11.80;;;9.40;99.90;;;;;;4988887;28;19918;-64
2021/09/29 04:55:46;;;;;;;;;;;9.50;99.90;;;;;;4988978;28;20502;-63
2021/09/29 04:58:12;;;;;;;11.88;6.88;;;9.60;99.90;;;;;;4991184;28;19924;-64
2021/09/29 05:00:38;;;;;;;;;;;9.60;99.90;;;;;;4989284;28;20073;-64
2021/09/29 05:03:04;;;;;;;9.18;5.20;;;9.60;99.90;;;;;;4988911;28;19925;-63
2021/09/29 05:05:33;;;;;;;;;;;9.60;99.90;;;;;;5004181;28;20144;-63
2021/09/29 05:08:02;;;;;;;11.38;6.63;;;9.60;99.90;;;;;;4997460;28;20267;-64
2021/09/29 05:10:44;;;;;;;323.52;138.80;;;9.60;99.90;;;;;;4997859;28;20160;-63
2021/09/29 05:13:23;;;;;;;97.47;43.88;;;9.60;99.90;;;;;;4988393;28;20054;-63
2021/09/29 05:15:48;;;;;;;50.00;22.77;;;9.60;99.90;;;;;;4988020;28;20042;-60
2021/09/29 05:18:15;;;;;;;;;;;9.60;99.90;;;;;;4989893;28;20052;-64
2021/09/29 05:20:40;;;;;;;18.02;7.88;;;9.60;99.90;;;;;;4988047;28;20017;-63
2021/09/29 05:23:06;;;;;;;;;;;9.60;99.90;;;;;;4989732;28;20117;-63
2021/09/29 05:25:31;;;;;;;8.75;4.53;;;9.60;99.90;;;;;;4988366;28;19917;-63
2021/09/29 05:27:57;;;;;;;;;;;9.60;99.90;;;;;;4988857;28;20053;-63
2021/09/29 05:30:23;;;;;;;8.90;3.72;;;9.60;99.90;;;;;;4989090;28;19928;-63
2021/09/29 05:32:48;;;;;;;;;;;9.60;99.90;;;;;;4988073;28;20441;-63
2021/09/29 05:35:14;;;;;;;10.07;3.65;;;9.70;99.90;;;;;;4989381;28;19925;-63
2021/09/29 05:37:40;;;;;;;;;;;9.70;99.90;;;;;;4993613;28;20045;-63
2021/09/29 05:40:06;;;;;;;8.07;3.30;;;9.60;99.90;;;;;;5001172;28;19917;-63
2021/09/29 05:42:32;;;;;;;6.00;3.05;;;9.70;99.90;;;;;;4988040;28;20041;-63
2021/09/29 05:44:57;;;;;;;;;;;9.70;99.90;;;;;;4988150;28;20038;-63
2021/09/29 05:47:22;;;;;;;4.88;3.20;;;9.60;99.90;;;;;;4988243;28;19932;-63
2021/09/29 05:49:48;;;;;;;;;;;9.60;99.90;;;;;;4988533;28;20125;-63
2021/09/29 05:52:13;;;;;;;3.75;2.88;;;9.70;99.90;;;;;;4988838;28;19961;-63
2021/09/29 05:54:39;;;;;;;;;;;9.70;99.90;;;;;;4989259;28;20053;-63
2021/09/29 05:57:05;;;;;;;6.18;3.70;;;9.70;99.90;;;;;;4987362;28;19944;-63
2021/09/29 05:59:31;;;;;;;;;;;9.70;99.90;;;;;;5002040;28;20125;-63
2021/09/29 06:01:56;;;;;;;13.10;3.88;;;9.60;99.90;;;;;;5003480;28;19917;-63
2021/09/29 06:04:22;;;;;;;;;;;9.70;99.90;;;;;;5008391;28;20052;-63
2021/09/29 06:06:47;;;;;;;10.27;3.95;;;9.70;99.90;;;;;;5006200;28;19928;-63
2021/09/29 06:09:13;;;;;;;;;;;9.80;99.90;;;;;;4997507;28;20069;-62
2021/09/29 06:11:39;;;;;;;11.93;3.80;;;9.80;99.90;;;;;;4987793;28;19995;-63
2021/09/29 06:14:06;;;;;;;7.03;3.97;;;9.80;99.90;;;;;;4988623;28;20046;-62
2021/09/29 06:16:41;;;;;;;7.75;3.75;;;9.80;99.90;;;;;;4986719;28;20039;-62
2021/09/29 06:19:08;;;;;;;6.20;3.70;;;9.90;99.90;;;;;;4988504;28;20042;-62
2021/09/29 06:21:34;;;;;;;8.13;3.63;;;9.80;99.90;;;;;;4990901;28;20048;-62
2021/09/29 06:23:59;;;;;;;;;;;9.80;99.90;;;;;;5004988;28;20046;-62
2021/09/29 06:26:25;;;;;;;19.90;7.40;;;9.80;99.90;;;;;;4995967;28;20008;-63
2021/09/29 06:28:51;;;;;;;;;;;9.80;99.90;;;;;;4996193;28;20053;-63
2021/09/29 06:31:16;;;;;;;9.55;5.35;;;9.90;99.90;;;;;;4996659;28;19917;-63
2021/09/29 06:33:42;;;;;;;;;;;9.90;99.90;;;;;;4998600;28;20042;-62
2021/09/29 06:36:07;;;;;;;12.13;5.72;;;10.00;99.90;;;;;;4995296;28;19968;-63
2021/09/29 06:38:33;;;;;;;;;;;10.00;99.90;;;;;;4982278;28;20092;-63
2021/09/29 06:40:59;;;;;;;21.88;12.60;;;10.10;99.90;;;;;;4999067;28;19917;-63
2021/09/29 06:43:24;;;;;;;;;;;10.10;99.90;;;;;;5008408;28;20092;-63
2021/09/29 06:45:50;;;;;;;11.63;5.47;;;10.20;99.90;;;;;;5001030;28;20283;-63
2021/09/29 06:48:16;;;;;;;;;;;10.20;99.90;;;;;;4985982;28;20118;-63
2021/09/29 06:50:42;;;;;;;6.80;3.85;;;10.20;99.90;;;;;;4986956;28;19968;-63
2021/09/29 06:53:15;;;;;;;;;;;10.30;99.90;;;;;;4994857;28;20069;-63
2021/09/29 06:55:40;;;;;;;11.00;5.45;;;10.40;99.90;;;;;;4996836;28;20005;-63
2021/09/29 06:58:06;;;;;;;;;;;10.50;99.90;;;;;;5001092;28;20092;-63
2021/09/29 07:00:32;;;;;;;12.43;5.03;;;10.50;99.90;;;;;;4987670;28;19924;-62
2021/09/29 07:02:57;;;;;;;;;;;10.50;99.90;;;;;;4985406;28;20038;-63
2021/09/29 07:05:24;;;;;;;6.82;4.20;;;10.50;99.90;;;;;;4986919;28;20294;-62
2021/09/29 07:07:50;;;;;;;12.00;4.63;;;10.50;99.90;;;;;;4986875;28;20133;-61
2021/09/29 07:10:15;;;;;;;;;;;10.60;99.90;;;;;;4996518;28;20114;-62
2021/09/29 07:12:43;;;;;;;11.77;3.70;;;10.90;99.90;;;;;;4987153;28;19963;-61
2021/09/29 07:15:09;;;;;;;9.40;3.22;;;11.00;99.90;;;;;;4987257;28;20042;-63
2021/09/29 07:17:35;;;;;;;7.88;2.97;;;11.10;99.90;;;;;;5005110;28;20494;-61
2021/09/29 07:20:03;;;;;;;19.50;3.75;;;11.20;99.90;;;;;;5007392;28;20053;-62
2021/09/29 07:22:29;;;;;;;10.77;4.38;;;11.20;99.90;;;;;;5006570;28;20038;-64
2021/09/29 07:24:55;;;;;;;;;;;11.20;99.90;;;;;;5007741;28;20048;-64
2021/09/29 07:27:22;;;;;;;7.50;3.15;;;11.20;99.90;;;;;;5007322;28;19929;-62
2021/09/29 07:29:47;;;;;;;9.23;2.60;;;11.20;99.90;;;;;;5007732;28;20528;-62
2021/09/29 07:32:13;;;;;;;;;;;11.20;99.90;;;;;;5007734;28;20034;-62
2021/09/29 07:34:39;;;;;;;7.97;2.50;;;11.30;99.90;;;;;;5011156;28;19917;-63
2021/09/29 07:37:04;;;;;;;;;;;11.40;99.90;;;;;;5008164;28;20128;-63
2021/09/29 07:39:30;;;;;;;15.13;2.58;;;11.50;99.90;;;;;;5010489;28;19932;-64
2021/09/29 07:41:55;;;;;;;;;;;11.70;99.90;;;;;;5024686;28;20068;-64
2021/09/29 07:44:21;;;;;;;11.77;2.03;;;11.80;99.90;;;;;;5030632;28;20286;-63
2021/09/29 07:46:47;;;;;;;;;;;12.00;99.90;;;;;;5029403;28;20052;-63
2021/09/29 07:49:14;;;;;;;9.00;2.20;;;12.10;99.90;;;;;;5030372;28;19971;-63
2021/09/29 07:51:40;;;;;;;8.18;1.58;;;12.20;99.90;;;;;;5028333;28;20049;-64
2021/09/29 07:54:06;;;;;;;;;;;12.30;99.90;;;;;;5029327;28;20044;-64
2021/09/29 07:56:32;;;;;;;6.93;1.38;;;12.40;99.90;;;;;;5015943;28;20289;-63
2021/09/29 07:58:57;;;;;;;;;;;12.40;99.90;;;;;;5018857;28;20037;-63
2021/09/29 08:01:24;;;;;;;9.82;1.58;;;12.50;99.90;;;;;;5027479;28;19978;-63
2021/09/29 08:03:50;;;;;;;9.63;2.25;;;12.80;99.90;;;;;;5026668;28;20041;-63
2021/09/29 08:06:16;;;;;;;5.90;1.55;;;13.40;99.90;;;;;;5028559;28;20059;-63
2021/09/29 08:08:42;;;;;;;;;;;13.90;99.90;;;;;;5012433;28;20034;-64
2021/09/29 08:11:07;;;;;;;12.85;1.35;;;14.40;99.90;;;;;;5009817;28;20041;-63
2021/09/29 08:13:33;;;;;;;;;;;14.80;99.90;;;;;;5010043;28;20042;-63
2021/09/29 08:15:59;;;;;;;5.95;2.22;;;14.80;99.90;;;;;;5009249;28;19921;-64
2021/09/29 08:18:25;;;;;;;5.32;1.25;;;14.50;99.90;;;;;;5009902;28;20089;-63
2021/09/29 08:20:52;;;;;;;;;;;14.10;99.90;;;;;;5009877;28;20093;-64
2021/09/29 08:23:28;;;;;;;13.32;1.48;;;13.80;99.90;;;;;;5010075;28;19921;-63
2021/09/29 08:31:12;;;;;;;7.05;1.58;;;13.60;99.90;;;;;;5008678;28;20045;-63
2021/09/29 08:39:08;;;;;;;5.40;1.20;;;14.10;99.90;;;;;;5009193;28;20030;-63
2021/09/29 08:44:22;;;;;;;6.75;1.50;;;13.80;99.90;;;;;;5009656;28;20502;-63
2021/09/29 08:49:45;;;;;;;9.88;2.33;;;13.60;99.90;;;;;;5009233;28;20200;-63
2021/09/29 09:16:31;;;;;;;;;;;13.10;99.90;;;;;;5007932;28;20073;-63
2021/09/29 09:18:59;;;;;;;6.50;1.55;;;13.10;99.90;;;;;;5008827;28;19924;-63
2021/09/29 09:21:27;;;;;;;8.07;2.08;;;13.00;99.90;;;;;;5007827;28;20095;-63
2021/09/29 09:23:53;;;;;;;8.57;2.80;;;13.10;99.90;;;;;;5010795;28;20038;-63
2021/09/29 09:26:20;;;;;;;;;;;13.10;99.90;;;;;;5027816;28;20076;-63
2021/09/29 09:28:47;;;;;;;;;;;13.10;99.90;;;;;;5028254;28;19928;-62
2021/09/29 09:31:18;;;;;;;8.40;1.90;;;13.10;99.90;;;;;;5026759;28;19921;-64
2021/09/29 09:33:52;;;;;;;14.68;1.60;;;13.10;99.90;;;;;;5027618;28;20079;-64
2021/09/29 09:36:30;;;;;;;11.73;2.15;;;13.10;99.90;;;;;;5027714;28;20041;-64
2021/09/29 09:38:58;;;;;;;13.35;2.42;;;13.10;99.90;;;;;;4972659;28;20042;-65
2021/09/29 09:41:24;;;;;;;6.47;1.80;;;12.90;99.90;;;;;;5006247;28;20139;-65
2021/09/29 09:43:59;;;;;;;11.88;1.88;;;12.80;99.90;;;;;;5006681;28;20184;-65
2021/09/29 09:46:26;;;;;;;6.78;2.22;;;12.60;99.90;;;;;;4999480;28;20061;-63
2021/09/29 09:49:08;;;;;;;11.50;3.03;;;12.60;99.90;;;;;;5007291;28;20037;-65
2021/09/29 09:51:57;;;;;;;7.03;3.38;;;12.50;99.90;;;;;;5011279;28;20061;-64
2021/09/29 09:54:34;;;;;;;10.48;2.53;;;12.40;99.90;;;;;;5003921;28;20046;-64
2021/09/29 09:57:00;;;;;;;8.45;2.22;;;12.30;99.90;;;;;;5006133;28;20046;-64
2021/09/29 09:59:30;;;;;;;;;;;12.20;99.90;;;;;;5010746;28;20037;-64
2021/09/29 10:01:56;;;;;;;7.55;2.28;;;12.10;99.90;;;;;;5005635;28;19925;-64
2021/09/29 10:04:22;;;;;;;10.07;2.17;;;12.00;99.90;;;;;;5006613;28;20038;-65
2021/09/29 10:06:47;;;;;;;;;;;11.90;99.90;;;;;;5025270;28;20612;-64
2021/09/29 10:14:44;;;;;;;5.05;1.20;;;11.90;99.90;;;;;;5006335;28;20105;-64
2021/09/29 10:28:40;;;;;;;2.40;0.90;;;13.10;99.90;;;;;;5006117;28;20085;-64
2021/09/29 10:33:54;;;;;;;0.95;0.70;;;13.60;99.90;;;;;;5007437;28;20046;-64
2021/09/29 10:41:52;;;;;;;2.17;0.73;;;13.30;99.90;;;;;;5006683;28;20383;-65
2021/09/29 10:44:28;;;;;;;3.28;0.70;;;13.10;99.90;;;;;;5007347;28;20095;-65
2021/09/29 10:47:10;;;;;;;1.20;0.60;;;12.90;99.90;;;;;;5002616;28;20041;-64
2021/09/29 10:52:32;;;;;;;5.25;0.90;;;12.60;99.90;;;;;;5004881;28;20450;-64
2021/09/29 11:03:01;;;;;;;8.45;1.00;;;12.50;99.90;;;;;;5005166;28;20403;-65
2021/09/29 11:06:37;;;;;;;2.17;1.40;;;12.30;99.90;;;;;;5004443;28;20046;-64
2021/09/29 11:28:24;;;;;;;2.10;0.75;;;11.70;99.90;;;;;;5026089;28;20332;-64
2021/09/29 11:31:13;;;;;;;3.60;1.00;;;11.60;99.90;;;;;;5026442;28;20563;-65
2021/09/29 12:12:20;;;;;;;1.33;0.70;;;11.70;99.90;;;;;;5047312;28;20044;-66
2021/09/29 12:14:49;;;;;;;0.70;0.40;;;11.70;99.90;;;;;;5048305;28;20163;-64
2021/09/29 12:17:22;;;;;;;1.67;0.82;;;11.50;99.90;;;;;;5038764;28;20036;-63
2021/09/29 12:19:55;;;;;;;0.52;0.40;;;11.50;99.90;;;;;;5050015;28;20116;-63
2021/09/29 12:22:22;;;;;;;2.90;0.90;;;11.40;99.90;;;;;;5049187;28;20040;-63
2021/09/29 12:27:26;;;;;;;;;;;11.40;99.90;;;;;;5049418;28;20497;-63
2021/09/29 12:29:53;;;;;;;1.33;0.40;;;11.40;99.90;;;;;;5049968;28;19925;-64
2021/09/29 12:38:01;;;;;;;0.50;0.50;;;11.40;99.90;;;;;;5048760;28;20523;-64
2021/09/29 12:40:30;;;;;;;1.65;0.30;;;11.30;99.90;;;;;;5046302;28;20048;-64
2021/09/29 12:43:10;;;;;;;1.70;0.38;;;11.20;99.90;;;;;;5054211;28;20041;-64
2021/09/29 12:45:38;;;;;;;0.77;0.25;;;11.20;99.90;;;;;;5052271;28;20049;-64
2021/09/29 12:48:07;;;;;;;1.45;0.60;;;11.10;99.90;;;;;;5056395;28;20040;-64
2021/09/29 12:56:00;;;;;;;1.20;0.60;;;11.00;99.90;;;;;;5048473;28;20323;-63
2021/09/29 12:58:29;;;;;;;0.82;0.40;;;11.00;99.90;;;;;;5052106;28;20086;-64
2021/09/29 13:00:56;;;;;;;0.35;0.35;;;10.90;99.90;;;;;;5062146;28;20043;-64
2021/09/29 13:03:21;;;;;;;0.63;0.43;;;11.00;99.90;;;;;;5049408;28;20049;-64
2021/09/29 13:05:48;;;;;;;;;;;10.90;99.90;;;;;;5048702;28;20791;-64
2021/09/29 13:08:14;;;;;;;0.73;0.40;;;11.00;99.90;;;;;;5048990;28;19956;-64
2021/09/29 13:10:39;;;;;;;;;;;11.10;99.90;;;;;;5049190;28;20045;-64
2021/09/29 13:13:05;;;;;;;1.40;1.10;;;11.10;99.90;;;;;;5048895;28;19950;-64
2021/09/29 13:15:32;;;;;;;;;;;11.00;99.90;;;;;;5048347;28;20037;-63
2021/09/29 13:17:58;;;;;;;0.70;0.60;;;11.00;99.90;;;;;;5048263;28;19978;-63
2021/09/29 13:20:27;;;;;;;0.75;0.50;;;10.90;99.90;;;;;;5047902;28;20807;-64
2021/09/29 13:23:05;;;;;;;2.15;0.60;;;11.00;99.90;;;;;;5048754;28;20049;-64
2021/09/29 13:36:37;;;;;;;2.30;1.65;;;11.40;99.90;;;;;;5047881;28;20049;-63
2021/09/29 13:39:14;;;;;;;2.55;1.30;;;11.40;99.90;;;;;;5048643;28;20094;-62
2021/09/29 13:41:41;;;;;;;1.40;1.30;;;11.50;99.90;;;;;;5048131;28;20145;-64
2021/09/29 13:44:09;;;;;;;1.50;1.35;;;11.40;99.90;;;;;;5048048;28;20041;-64
2021/09/29 13:46:35;;;;;;;4.10;1.40;;;11.30;99.90;;;;;;5046939;28;20531;-64
2021/09/29 13:49:03;;;;;;;5.07;1.50;;;11.40;99.90;;;;;;5048237;28;20059;-64
2021/09/29 13:51:30;;;;;;;2.50;1.30;;;11.40;99.90;;;;;;5047351;28;20041;-64
2021/09/29 13:53:57;;;;;;;2.30;1.00;;;11.40;99.90;;;;;;5047574;28;20108;-64
2021/09/29 13:56:31;;;;;;;4.95;1.35;;;11.30;99.90;;;;;;5047861;28;20049;-64
2021/09/29 13:59:06;;;;;;;1.23;1.13;;;11.40;99.90;;;;;;5047060;28;20076;-64
2021/09/29 14:28:34;;;;;;;3.28;1.35;;;11.40;99.90;;;;;;5047494;28;20044;-66
2021/09/29 14:29:23;;;;;;;4.38;1.10;;;11.40;99.90;;;;;;5042865;28;20312;-64
2021/09/29 14:32:05;;;;;;;1.38;1.05;;;11.40;99.90;;;;;;5045517;28;20033;-64
2021/09/29 14:34:30;;;;;;;1.77;1.10;;;11.40;99.90;;;;;;5047868;28;20040;-64
2021/09/29 14:36:56;;;;;;;;;;;11.40;99.90;;;;;;5045722;28;20044;-64
2021/09/29 14:39:23;;;;;;;4.15;1.30;;;11.40;99.90;;;;;;5047192;28;19921;-65
2021/09/29 14:41:48;;;;;;;2.53;1.10;;;11.40;99.90;;;;;;5046128;28;20488;-64
2021/09/29 14:44:14;;;;;;;;;;;11.40;99.90;;;;;;5047502;28;20033;-63
2021/09/29 14:46:40;;;;;;;1.63;0.57;;;10.90;99.90;;;;;;5044771;28;19921;-64
2021/09/29 14:49:05;;;;;;;;;;;10.50;99.90;;;;;;5046354;28;20032;-64
2021/09/29 14:51:32;;;;;;;0.50;0.43;;;10.20;99.90;;;;;;5046345;28;19969;-62
2021/09/29 14:53:59;;;;;;;1.83;0.50;;;9.90;99.90;;;;;;5046966;28;20052;-63
2021/09/29 14:56:26;;;;;;;1.13;0.45;;;9.60;99.90;;;;;;5045841;28;20073;-63
2021/09/29 14:58:52;;;;;;;0.90;0.35;;;9.40;99.90;;;;;;5047318;28;20086;-64
2021/09/29 15:01:18;;;;;;;;;;;9.60;99.90;;;;;;5055264;28;20033;-64
2021/09/29 15:03:47;;;;;;;2.03;0.60;;;9.60;99.90;;;;;;5067007;28;19917;-63
2021/09/29 15:06:13;;;;;;;1.08;0.38;;;9.40;99.90;;;;;;5066686;28;20067;-64
2021/09/29 15:08:42;;;;;;;9.95;0.85;;;9.30;99.90;;;;;;5049677;28;20110;-63
2021/09/29 15:11:12;;;;;;;1.90;0.50;;;9.40;99.90;;;;;;5046547;28;20044;-63
2021/09/29 15:13:45;;;;;;;0.47;0.40;;;9.30;99.90;;;;;;5044184;28;20501;-63
2021/09/29 15:16:16;;;;;;;0.60;0.40;;;9.40;99.90;;;;;;5037680;28;20409;-63
2021/09/29 15:19:07;;;;;;;0.60;0.60;;;9.40;99.90;;;;;;5035593;28;20053;-63
2021/09/29 15:32:30;;;;;;;1.02;0.60;;;9.20;99.90;;;;;;5050174;28;20035;-64
2021/09/29 15:48:43;;;;;;;0.70;0.50;;;9.00;99.90;;;;;;5048057;28;20127;-64
2021/09/29 15:53:54;;;;;;;;;;;9.00;99.90;;;;;;5051078;28;20102;-64
2021/09/29 16:01:41;;;;;;;2.97;0.40;;;9.00;99.90;;;;;;5059666;28;20163;-62
2021/09/29 16:12:21;;;;;;;0.70;0.60;;;9.00;99.90;;;;;;5049796;28;20488;-64
2021/09/29 16:17:37;;;;;;;3.55;0.60;;;9.00;99.90;;;;;;5049217;28;20041;-64
2021/09/29 16:22:52;;;;;;;2.35;0.95;;;8.90;99.90;;;;;;5049450;28;20143;-66
2021/09/29 16:31:02;;;;;;;5.95;3.17;;;9.00;99.90;;;;;;5048578;28;20103;-65
2021/09/29 16:36:09;;;;;;;5.50;1.25;;;9.00;99.90;;;;;;5048583;28;20113;-64
2021/09/29 16:38:36;;;;;;;8.27;1.98;;;8.90;99.90;;;;;;5049088;28;20440;-64
2021/09/29 16:41:02;;;;;;;3.38;0.93;;;9.00;99.90;;;;;;5048807;28;20084;-65
2021/09/29 16:43:28;;;;;;;;;;;9.00;99.90;;;;;;5049709;28;20056;-62
2021/09/29 16:45:56;;;;;;;5.80;2.40;;;9.00;99.90;;;;;;5048301;28;19927;-66
2021/09/29 16:48:25;;;;;;;6.65;3.28;;;9.00;99.90;;;;;;5049408;28;20056;-64
2021/09/29 16:51:01;;;;;;;15.57;6.63;;;9.00;99.90;;;;;;5049111;28;20045;-64
2021/09/29 16:53:31;;;;;;;14.15;1.75;;;8.90;99.90;;;;;;5048643;28;20052;-64
2021/09/29 16:55:58;;;;;;;2.95;1.10;;;8.90;99.90;;;;;;5048312;28;20057;-64
2021/09/29 16:58:28;;;;;;;3.65;1.23;;;8.90;99.90;;;;;;5055185;28;20070;-64
2021/09/29 17:00:59;;;;;;;4.10;1.45;;;8.90;99.90;;;;;;5067783;28;20038;-63
2021/09/29 17:03:24;;;;;;;2.10;1.08;;;8.80;99.90;;;;;;5049936;28;20112;-64
2021/09/29 17:05:51;;;;;;;;;;;8.80;99.90;;;;;;5048541;28;20148;-63
2021/09/29 17:08:17;;;;;;;1.77;0.90;;;8.70;99.90;;;;;;5047857;28;20312;-63
2021/09/29 17:10:43;;;;;;;2.75;1.30;;;8.70;99.90;;;;;;5048320;28;20557;-64
2021/09/29 17:13:12;;;;;;;;;;;8.70;99.90;;;;;;5048967;28;20037;-63
2021/09/29 17:15:39;;;;;;;4.82;1.45;;;8.70;99.90;;;;;;5047942;28;19917;-63
2021/09/29 17:18:05;;;;;;;13.50;6.97;;;8.70;99.90;;;;;;5048262;28;20055;-64